Time;durP1;ratioP1;P1;durP2;ratioP2;P2;SDS_P1;SDS_P2;PMS_P1;PMS_P2;Temp;Humidity;BMP_temperature;BMP_pressure;BME280_temperature;BME280_humidity;BME280_pressure;Samples;Min_cycle;Max_cycle;Signal;HPM_P1;HPM_P2
2023/06/04 00:00:06;;;;;;;0.40;0.23;;;;;;;;;;5024932;28;59332;-61
2023/06/04 00:02:31;;;;;;;0.20;0.10;;;;;;;;;;5025416;28;59212;-62
2023/06/04 00:04:57;;;;;;;0.20;0.20;;;;;;;;;;5025297;28;59197;-62
2023/06/04 00:07:22;;;;;;;0.30;0.30;;;;;;;;;;5026692;28;59186;-60
2023/06/04 00:09:47;;;;;;;0.40;0.40;;;;;;;;;;5022304;28;60444;-62
2023/06/04 00:12:12;;;;;;;0.50;0.27;;;;;;;;;;5026699;28;59287;-63
2023/06/04 00:14:38;;;;;;;0.10;0.10;;;;;;;;;;5024948;28;59708;-62
2023/06/04 00:17:03;;;;;;;0.20;0.20;;;;;;;;;;5025511;28;59613;-59
2023/06/04 00:19:28;;;;;;;0.40;0.40;;;;;;;;;;5025836;28;59961;-62
2023/06/04 00:21:53;;;;;;;0.50;0.30;;;;;;;;;;5024119;28;59182;-61
2023/06/04 00:24:19;;;;;;;0.37;0.20;;;;;;;;;;5026334;28;59060;-62
2023/06/04 00:26:44;;;;;;;0.10;0.10;;;;;;;;;;5025658;28;59507;-60
2023/06/04 00:29:09;;;;;;;0.10;0.10;;;;;;;;;;5026464;28;59235;-62
2023/06/04 00:31:35;;;;;;;0.23;0.23;;;;;;;;;;5025048;28;59192;-62
2023/06/04 00:34:00;;;;;;;0.30;0.22;;;;;;;;;;5023691;28;59176;-62
2023/06/04 00:36:25;;;;;;;0.23;0.23;;;;;;;;;;5029580;28;59327;-62
2023/06/04 00:38:50;;;;;;;0.40;0.40;;;;;;;;;;5028836;28;59323;-62
2023/06/04 00:41:16;;;;;;;0.63;0.63;;;;;;;;;;5027062;28;59754;-59
2023/06/04 00:43:45;;;;;;;0.73;0.20;;;;;;;;;;5029489;28;59244;-59
2023/06/04 00:46:17;;;;;;;0.50;0.50;;;;;;;;;;5027408;28;59764;-62
2023/06/04 00:48:43;;;;;;;0.88;0.28;;;;;;;;;;5025992;28;59476;-62
2023/06/04 00:51:08;;;;;;;0.20;0.20;;;;;;;;;;5027178;28;59292;-62
2023/06/04 00:53:33;;;;;;;0.32;0.30;;;;;;;;;;5025340;28;59306;-61
2023/06/04 00:55:58;;;;;;;0.50;0.20;;;;;;;;;;5022285;28;59272;-62
2023/06/04 00:58:24;;;;;;;0.60;0.32;;;;;;;;;;5025486;28;59371;-62
2023/06/04 01:00:52;;;;;;;0.45;0.30;;;;;;;;;;5022166;28;59330;-62
2023/06/04 01:03:18;;;;;;;0.38;0.30;;;;;;;;;;5025322;28;59487;-62
2023/06/04 01:06:03;;;;;;;0.30;0.25;;;;;;;;;;5025814;28;59498;-62
2023/06/04 01:08:29;;;;;;;0.30;0.30;;;;;;;;;;5022124;28;61804;-62
2023/06/04 01:10:55;;;;;;;1.73;0.55;;;;;;;;;;5021417;28;59673;-61
2023/06/04 01:13:21;;;;;;;0.40;0.20;;;;;;;;;;5027023;28;59075;-62
2023/06/04 01:15:46;;;;;;;0.53;0.13;;;;;;;;;;5025542;28;59612;-63
2023/06/04 01:18:13;;;;;;;0.30;0.30;;;;;;;;;;5023628;28;59110;-62
2023/06/04 01:20:39;;;;;;;0.43;0.20;;;;;;;;;;5023062;28;59111;-63
2023/06/04 01:23:15;;;;;;;0.20;0.20;;;;;;;;;;5024643;28;59446;-62
2023/06/04 01:25:43;;;;;;;0.45;0.40;;;;;;;;;;5026704;28;59724;-63
2023/06/04 01:28:12;;;;;;;0.30;0.30;;;;;;;;;;5027221;28;59089;-62
2023/06/04 01:30:45;;;;;;;0.20;0.20;;;;;;;;;;5027387;28;59227;-62
2023/06/04 01:33:11;;;;;;;0.30;0.30;;;;;;;;;;5027981;28;59243;-60
2023/06/04 01:35:36;;;;;;;0.20;0.20;;;;;;;;;;5027802;28;59266;-61
2023/06/04 01:38:01;;;;;;;0.20;0.20;;;;;;;;;;5026411;28;59831;-59
2023/06/04 01:40:27;;;;;;;0.10;0.10;;;;;;;;;;5028030;28;59092;-60
2023/06/04 01:42:52;;;;;;;0.20;0.10;;;;;;;;;;5028560;28;59531;-62
2023/06/04 01:45:17;;;;;;;0.30;0.20;;;;;;;;;;5023235;28;60712;-62
2023/06/04 01:47:42;;;;;;;0.15;0.15;;;;;;;;;;5027657;28;59247;-62
2023/06/04 01:50:09;;;;;;;0.50;0.20;;;;;;;;;;5025869;28;59357;-59
2023/06/04 01:52:34;;;;;;;0.15;0.15;;;;;;;;;;5028747;28;59015;-62
2023/06/04 01:55:00;;;;;;;0.10;0.10;;;;;;;;;;5027297;28;59314;-60
2023/06/04 01:57:25;;;;;;;0.20;0.20;;;;;;;;;;5029830;28;59216;-62
2023/06/04 01:59:50;;;;;;;0.30;0.20;;;;;;;;;;5028330;28;59284;-62
2023/06/04 02:02:15;;;;;;;1.08;0.57;;;;;;;;;;5029091;28;59562;-62
2023/06/04 02:04:44;;;;;;;0.30;0.30;;;;;;;;;;5027220;28;59522;-62
2023/06/04 02:07:10;;;;;;;0.10;0.10;;;;;;;;;;5025926;28;59661;-62
2023/06/04 02:09:35;;;;;;;0.75;0.20;;;;;;;;;;5028476;28;59169;-62
2023/06/04 02:12:01;;;;;;;0.17;0.10;;;;;;;;;;5029141;28;59334;-62
2023/06/04 02:14:26;;;;;;;0.23;0.23;;;;;;;;;;5025310;28;59261;-58
2023/06/04 02:16:53;;;;;;;0.20;0.20;;;;;;;;;;5027119;28;59144;-62
2023/06/04 02:19:19;;;;;;;0.45;0.30;;;;;;;;;;5026576;28;59878;-62
2023/06/04 02:21:44;;;;;;;0.20;0.20;;;;;;;;;;5027567;28;59589;-63
2023/06/04 02:24:09;;;;;;;0.52;0.30;;;;;;;;;;5029182;28;60113;-63
2023/06/04 02:26:35;;;;;;;0.15;0.15;;;;;;;;;;5026359;28;58870;-63
2023/06/04 02:29:01;;;;;;;0.30;0.20;;;;;;;;;;5027270;28;59102;-62
2023/06/04 02:31:26;;;;;;;0.30;0.30;;;;;;;;;;5027237;28;60650;-55
2023/06/04 02:33:51;;;;;;;0.27;0.20;;;;;;;;;;5025535;28;59175;-63
2023/06/04 02:36:17;;;;;;;0.30;0.30;;;;;;;;;;5028737;28;59637;-63
2023/06/04 02:38:42;;;;;;;0.32;0.32;;;;;;;;;;5027020;28;59201;-62
2023/06/04 02:41:07;;;;;;;0.13;0.13;;;;;;;;;;5028676;28;59284;-61
2023/06/04 02:43:32;;;;;;;0.27;0.27;;;;;;;;;;5028987;28;59028;-62
2023/06/04 02:45:58;;;;;;;0.33;0.30;;;;;;;;;;5027528;28;59818;-62
2023/06/04 02:48:23;;;;;;;0.33;0.33;;;;;;;;;;5026475;28;58771;-62
2023/06/04 02:50:48;;;;;;;0.40;0.25;;;;;;;;;;5027980;28;59727;-62
2023/06/04 02:53:13;;;;;;;0.30;0.30;;;;;;;;;;5025021;28;59272;-63
2023/06/04 02:55:38;;;;;;;0.20;0.10;;;;;;;;;;5026477;28;59218;-62
2023/06/04 02:58:03;;;;;;;0.30;0.30;;;;;;;;;;5027124;28;59028;-61
2023/06/04 03:00:28;;;;;;;0.10;0.10;;;;;;;;;;5027144;28;59455;-63
2023/06/04 03:03:00;;;;;;;0.30;0.20;;;;;;;;;;5028379;28;59199;-62
2023/06/04 03:05:26;;;;;;;0.50;0.30;;;;;;;;;;5025393;28;61538;-62
2023/06/04 03:07:51;;;;;;;0.35;0.30;;;;;;;;;;5026408;28;59132;-61
2023/06/04 03:10:17;;;;;;;0.47;0.47;;;;;;;;;;5026471;28;59525;-62
2023/06/04 03:12:42;;;;;;;0.30;0.30;;;;;;;;;;5026503;28;59088;-62
2023/06/04 03:15:07;;;;;;;0.40;0.20;;;;;;;;;;5028175;28;59797;-63
2023/06/04 03:17:32;;;;;;;0.30;0.20;;;;;;;;;;5028351;28;60137;-62
2023/06/04 03:19:58;;;;;;;0.25;0.25;;;;;;;;;;5025715;28;59559;-62
2023/06/04 03:22:23;;;;;;;0.17;0.17;;;;;;;;;;5024476;28;59202;-62
2023/06/04 03:24:48;;;;;;;0.30;0.30;;;;;;;;;;5025681;28;60691;-61
2023/06/04 03:27:14;;;;;;;0.27;0.20;;;;;;;;;;5025398;28;59465;-61
2023/06/04 03:29:39;;;;;;;0.65;0.47;;;;;;;;;;5027966;28;59679;-63
2023/06/04 03:32:05;;;;;;;0.32;0.32;;;;;;;;;;5026547;28;59516;-62
2023/06/04 03:34:33;;;;;;;0.20;0.20;;;;;;;;;;5025856;28;59176;-62
2023/06/04 03:36:59;;;;;;;0.20;0.20;;;;;;;;;;5027101;28;59406;-62
2023/06/04 03:39:25;;;;;;;0.40;0.40;;;;;;;;;;5032590;28;59178;-62
2023/06/04 03:41:50;;;;;;;0.20;0.20;;;;;;;;;;5027790;28;59099;-61
2023/06/04 03:44:16;;;;;;;0.35;0.35;;;;;;;;;;5025005;28;59202;-61
2023/06/04 03:46:44;;;;;;;0.25;0.25;;;;;;;;;;5025304;28;59513;-61
2023/06/04 03:49:10;;;;;;;0.45;0.30;;;;;;;;;;5026717;28;59251;-62
2023/06/04 03:51:36;;;;;;;0.43;0.43;;;;;;;;;;5025633;28;59276;-61
2023/06/04 03:54:02;;;;;;;0.43;0.20;;;;;;;;;;5027414;28;59206;-62
2023/06/04 03:56:27;;;;;;;0.50;0.40;;;;;;;;;;5026235;28;59525;-61
2023/06/04 03:58:52;;;;;;;0.37;0.37;;;;;;;;;;5025370;28;59549;-62
2023/06/04 04:01:18;;;;;;;0.30;0.27;;;;;;;;;;5021861;28;59712;-62
2023/06/04 04:03:43;;;;;;;0.30;0.30;;;;;;;;;;5025824;28;59199;-63
2023/06/04 04:06:10;;;;;;;0.80;0.22;;;;;;;;;;5023918;28;62814;-62
2023/06/04 04:08:35;;;;;;;0.43;0.43;;;;;;;;;;5027348;28;59275;-63
2023/06/04 04:11:01;;;;;;;0.20;0.10;;;;;;;;;;5030251;28;59270;-62
2023/06/04 04:13:26;;;;;;;0.20;0.20;;;;;;;;;;5025932;28;59156;-59
2023/06/04 04:15:52;;;;;;;0.43;0.30;;;;;;;;;;5026107;28;60358;-62
2023/06/04 04:18:19;;;;;;;0.70;0.70;;;;;;;;;;5029648;28;59397;-63
2023/06/04 04:20:45;;;;;;;0.30;0.30;;;;;;;;;;5027480;28;59234;-62
2023/06/04 04:23:11;;;;;;;0.57;0.28;;;;;;;;;;5027686;28;59730;-62
2023/06/04 04:25:36;;;;;;;0.50;0.33;;;;;;;;;;5027165;28;59602;-62
2023/06/04 04:28:02;;;;;;;0.38;0.38;;;;;;;;;;5032050;28;59077;-62
2023/06/04 04:30:28;;;;;;;0.38;0.35;;;;;;;;;;5028230;28;59282;-62
2023/06/04 04:32:53;;;;;;;0.40;0.40;;;;;;;;;;5026389;28;60150;-60
2023/06/04 04:35:19;;;;;;;0.40;0.20;;;;;;;;;;5028077;28;59253;-63
2023/06/04 04:37:44;;;;;;;0.33;0.30;;;;;;;;;;5021846;28;59181;-58
2023/06/04 04:40:10;;;;;;;0.30;0.30;;;;;;;;;;5028327;28;59206;-60
2023/06/04 04:42:35;;;;;;;0.40;0.30;;;;;;;;;;5027837;28;59724;-62
2023/06/04 04:45:00;;;;;;;0.28;0.28;;;;;;;;;;5027762;28;59267;-62
2023/06/04 04:47:25;;;;;;;0.30;0.30;;;;;;;;;;5029915;28;59646;-62
2023/06/04 04:49:51;;;;;;;0.30;0.30;;;;;;;;;;5029488;28;59772;-63
2023/06/04 04:52:16;;;;;;;0.32;0.20;;;;;;;;;;5027569;28;59263;-62
2023/06/04 04:54:41;;;;;;;0.22;0.22;;;;;;;;;;5026894;28;59246;-62
2023/06/04 04:57:07;;;;;;;0.53;0.20;;;;;;;;;;5028421;28;58630;-62
2023/06/04 04:59:32;;;;;;;0.30;0.30;;;;;;;;;;5026904;28;59113;-62
2023/06/04 05:01:57;;;;;;;0.10;0.10;;;;;;;;;;5024189;28;60215;-63
2023/06/04 05:04:22;;;;;;;0.37;0.37;;;;;;;;;;5022472;28;60609;-62
2023/06/04 05:06:47;;;;;;;0.10;0.10;;;;;;;;;;5025024;28;59182;-62
2023/06/04 05:09:13;;;;;;;0.20;0.20;;;;;;;;;;5029228;28;59532;-62
2023/06/04 05:11:38;;;;;;;0.20;0.20;;;;;;;;;;5025405;28;59221;-63
2023/06/04 05:14:03;;;;;;;0.50;0.35;;;;;;;;;;5024804;28;59190;-62
2023/06/04 05:16:29;;;;;;;0.10;0.10;;;;;;;;;;5026893;28;59615;-62
2023/06/04 05:18:56;;;;;;;0.20;0.20;;;;;;;;;;5024827;28;59524;-63
2023/06/04 05:21:21;;;;;;;0.20;0.20;;;;;;;;;;5023011;28;59108;-62
2023/06/04 05:23:48;;;;;;;0.20;0.20;;;;;;;;;;5020132;28;59286;-62
2023/06/04 05:26:13;;;;;;;0.60;0.40;;;;;;;;;;5021364;28;59901;-61
2023/06/04 05:28:38;;;;;;;0.40;0.40;;;;;;;;;;5025977;28;59651;-60
2023/06/04 05:31:04;;;;;;;0.20;0.20;;;;;;;;;;5027929;28;59170;-62
2023/06/04 05:33:30;;;;;;;0.10;0.10;;;;;;;;;;5025652;28;59640;-62
2023/06/04 05:35:57;;;;;;;0.20;0.20;;;;;;;;;;5026260;28;59408;-62
2023/06/04 05:38:25;;;;;;;0.30;0.30;;;;;;;;;;5024647;28;59302;-62
2023/06/04 05:40:52;;;;;;;0.28;0.15;;;;;;;;;;5021771;28;59521;-62
2023/06/04 05:43:17;;;;;;;0.45;0.30;;;;;;;;;;5022593;28;58891;-62
2023/06/04 05:45:42;;;;;;;0.20;0.20;;;;;;;;;;5023363;28;59372;-62
2023/06/04 05:48:08;;;;;;;0.23;0.10;;;;;;;;;;5026707;28;59401;-63
2023/06/04 05:50:33;;;;;;;0.15;0.15;;;;;;;;;;5026941;28;59620;-62
2023/06/04 05:52:58;;;;;;;0.20;0.20;;;;;;;;;;5021767;28;59232;-62
2023/06/04 05:55:23;;;;;;;0.20;0.20;;;;;;;;;;5024596;28;59376;-63
2023/06/04 05:57:51;;;;;;;0.30;0.20;;;;;;;;;;5024370;28;62611;-62
2023/06/04 06:00:17;;;;;;;0.75;0.35;;;;;;;;;;5022582;28;59947;-62
2023/06/04 06:02:43;;;;;;;0.20;0.20;;;;;;;;;;5019936;28;60839;-62
2023/06/04 06:05:08;;;;;;;0.50;0.30;;;;;;;;;;5026722;28;59327;-63
2023/06/04 06:07:34;;;;;;;0.23;0.20;;;;;;;;;;5024659;28;59230;-63
2023/06/04 06:09:59;;;;;;;0.55;0.28;;;;;;;;;;5025233;28;59309;-63
2023/06/04 06:12:24;;;;;;;0.10;0.10;;;;;;;;;;5027154;28;59413;-63
2023/06/04 06:14:49;;;;;;;0.40;0.40;;;;;;;;;;5024796;28;59061;-62
2023/06/04 06:17:14;;;;;;;0.53;0.30;;;;;;;;;;5024886;28;59515;-63
2023/06/04 06:19:40;;;;;;;0.25;0.15;;;;;;;;;;5026803;28;60726;-61
2023/06/04 06:22:05;;;;;;;0.33;0.33;;;;;;;;;;5024550;28;59299;-61
2023/06/04 06:24:30;;;;;;;0.30;0.30;;;;;;;;;;5026238;28;59291;-63
2023/06/04 06:26:55;;;;;;;0.10;0.10;;;;;;;;;;5024808;28;60676;-63
2023/06/04 06:29:21;;;;;;;0.60;0.20;;;;;;;;;;5024422;28;59347;-62
2023/06/04 06:31:46;;;;;;;0.30;0.25;;;;;;;;;;5019738;28;59183;-62
2023/06/04 06:34:11;;;;;;;1.67;0.63;;;;;;;;;;5021659;28;61402;-62
2023/06/04 06:36:36;;;;;;;0.20;0.20;;;;;;;;;;5021186;28;59881;-63
2023/06/04 06:39:01;;;;;;;0.60;0.37;;;;;;;;;;5022563;28;59495;-59
2023/06/04 06:41:27;;;;;;;0.30;0.30;;;;;;;;;;5026077;28;59203;-57
2023/06/04 06:43:52;;;;;;;0.28;0.28;;;;;;;;;;5024078;28;59696;-61
2023/06/04 06:46:17;;;;;;;1.63;0.40;;;;;;;;;;5023524;28;60950;-60
2023/06/04 06:48:45;;;;;;;4.13;0.60;;;;;;;;;;5024148;28;59705;-65
2023/06/04 06:51:10;;;;;;;3.05;0.40;;;;;;;;;;5022599;28;59133;-62
2023/06/04 06:53:35;;;;;;;1.03;0.67;;;;;;;;;;5023608;28;59160;-62
2023/06/04 06:56:00;;;;;;;6.22;1.23;;;;;;;;;;5019659;28;59511;-62
2023/06/04 06:58:25;;;;;;;5.32;1.67;;;;;;;;;;5028381;28;59293;-62
2023/06/04 07:00:50;;;;;;;2.27;0.90;;;;;;;;;;5021630;28;59065;-62
2023/06/04 07:03:16;;;;;;;3.33;0.90;;;;;;;;;;5024074;28;59167;-61
2023/06/04 07:05:41;;;;;;;1.37;0.73;;;;;;;;;;5025223;28;59993;-63
2023/06/04 07:08:07;;;;;;;2.25;0.95;;;;;;;;;;5023995;28;59322;-62
2023/06/04 07:10:32;;;;;;;1.40;1.20;;;;;;;;;;5024908;28;59207;-62
2023/06/04 07:12:57;;;;;;;1.17;0.63;;;;;;;;;;5018982;28;59327;-63
2023/06/04 07:15:22;;;;;;;1.67;1.07;;;;;;;;;;5021416;28;59260;-63
2023/06/04 07:17:48;;;;;;;3.88;1.02;;;;;;;;;;5025369;28;59206;-60
2023/06/04 07:20:13;;;;;;;3.97;1.60;;;;;;;;;;5017972;28;59536;-59
2023/06/04 07:22:38;;;;;;;3.83;1.10;;;;;;;;;;5021556;28;59347;-63
2023/06/04 07:25:03;;;;;;;2.73;1.37;;;;;;;;;;5019492;28;59686;-62
2023/06/04 07:27:28;;;;;;;5.82;1.30;;;;;;;;;;5022287;28;59675;-62
2023/06/04 07:29:54;;;;;;;5.33;1.40;;;;;;;;;;5022556;28;59207;-62
2023/06/04 07:32:19;;;;;;;1.90;1.10;;;;;;;;;;5025310;28;59247;-62
2023/06/04 07:34:44;;;;;;;2.80;1.00;;;;;;;;;;5026207;28;58596;-62
2023/06/04 07:37:10;;;;;;;5.40;1.33;;;;;;;;;;5025977;28;59746;-62
2023/06/04 07:39:35;;;;;;;5.30;1.63;;;;;;;;;;5026602;28;59542;-62
2023/06/04 07:42:00;;;;;;;2.90;1.40;;;;;;;;;;5026478;28;59223;-62
2023/06/04 07:44:26;;;;;;;3.37;1.90;;;;;;;;;;5024005;28;59716;-61
2023/06/04 07:46:51;;;;;;;2.00;0.95;;;;;;;;;;5025288;28;59270;-61
2023/06/04 07:49:16;;;;;;;1.33;0.77;;;;;;;;;;5027904;28;59219;-62
2023/06/04 07:51:41;;;;;;;4.00;0.90;;;;;;;;;;5027472;28;59618;-59
2023/06/04 07:54:07;;;;;;;4.22;1.00;;;;;;;;;;5024675;28;60038;-63
2023/06/04 07:56:32;;;;;;;5.80;1.63;;;;;;;;;;5026932;28;59520;-62
2023/06/04 07:58:57;;;;;;;4.47;1.53;;;;;;;;;;5026416;28;59357;-62
2023/06/04 08:01:23;;;;;;;2.17;0.73;;;;;;;;;;5025614;28;59497;-63
2023/06/04 08:03:48;;;;;;;5.05;1.00;;;;;;;;;;5027435;28;59217;-62
2023/06/04 08:06:16;;;;;;;6.07;2.50;;;;;;;;;;5026010;28;60060;-59
2023/06/04 08:08:44;;;;;;;6.35;1.33;;;;;;;;;;5025862;28;59221;-61
2023/06/04 08:11:09;;;;;;;5.75;1.40;;;;;;;;;;5026079;28;59571;-63
2023/06/04 08:13:34;;;;;;;3.37;1.10;;;;;;;;;;5025960;28;60093;-62
2023/06/04 08:15:59;;;;;;;3.23;0.97;;;;;;;;;;5023737;28;59344;-63
2023/06/04 08:18:24;;;;;;;1.05;0.77;;;;;;;;;;5027421;28;59623;-61
2023/06/04 08:20:50;;;;;;;3.45;0.98;;;;;;;;;;5026998;28;58502;-61
2023/06/04 08:23:15;;;;;;;4.35;1.27;;;;;;;;;;5028218;28;59309;-62
2023/06/04 08:25:41;;;;;;;2.72;1.27;;;;;;;;;;5025537;28;59450;-63
2023/06/04 08:28:06;;;;;;;1.10;0.93;;;;;;;;;;5027373;28;59631;-62
2023/06/04 08:30:31;;;;;;;2.73;1.00;;;;;;;;;;5025738;28;59660;-63
2023/06/04 08:32:56;;;;;;;2.05;1.10;;;;;;;;;;5027311;28;59248;-62
2023/06/04 08:35:22;;;;;;;2.67;1.10;;;;;;;;;;5026542;28;59180;-62
2023/06/04 08:37:47;;;;;;;4.43;1.77;;;;;;;;;;5027223;28;59760;-62
2023/06/04 08:40:12;;;;;;;3.10;1.13;;;;;;;;;;5025307;28;59686;-62
2023/06/04 08:42:41;;;;;;;2.43;0.83;;;;;;;;;;5026821;28;59301;-62
2023/06/04 08:45:10;;;;;;;1.10;0.70;;;;;;;;;;5024474;28;58755;-62
2023/06/04 08:47:36;;;;;;;1.63;1.20;;;;;;;;;;5025882;28;59244;-61
2023/06/04 08:50:01;;;;;;;1.65;1.25;;;;;;;;;;5026139;28;59759;-62
2023/06/04 08:52:27;;;;;;;2.30;1.20;;;;;;;;;;5024972;28;59832;-61
2023/06/04 08:54:53;;;;;;;2.57;0.97;;;;;;;;;;5025180;28;59144;-62
2023/06/04 08:57:19;;;;;;;1.77;0.90;;;;;;;;;;5029021;28;59222;-62
2023/06/04 08:59:47;;;;;;;2.75;1.30;;;;;;;;;;5029105;28;59616;-63
2023/06/04 09:02:12;;;;;;;;;;;;;;;;;;5029085;28;59178;-62
2023/06/04 09:04:38;;;;;;;1.70;0.80;;;;;;;;;;5030004;28;59408;-63
2023/06/04 09:07:04;;;;;;;3.15;0.80;;;;;;;;;;5030251;28;59175;-62
2023/06/04 09:09:30;;;;;;;3.42;1.42;;;;;;;;;;5029881;28;59455;-63
2023/06/04 09:11:56;;;;;;;2.33;0.90;;;;;;;;;;5029453;28;59214;-62
2023/06/04 09:14:22;;;;;;;2.10;1.15;;;;;;;;;;5029417;28;59426;-61
2023/06/04 09:16:48;;;;;;;1.57;0.80;;;;;;;;;;5029662;28;59550;-63
2023/06/04 09:19:13;;;;;;;1.48;0.82;;;;;;;;;;5028179;28;59642;-62
2023/06/04 09:21:49;;;;;;;1.25;0.77;;;;;;;;;;5029654;28;59203;-62
2023/06/04 09:24:14;;;;;;;2.42;1.42;;;;;;;;;;5029551;28;59272;-62
2023/06/04 09:26:39;;;;;;;1.03;0.83;;;;;;;;;;5029707;28;59254;-63
2023/06/04 09:29:05;;;;;;;1.03;0.60;;;;;;;;;;5027712;28;60943;-62
2023/06/04 09:31:36;;;;;;;1.30;0.90;;;;;;;;;;5029358;28;59337;-63
2023/06/04 09:34:01;;;;;;;1.20;0.70;;;;;;;;;;5027303;28;59171;-62
2023/06/04 09:36:29;;;;;;;1.90;1.10;;;;;;;;;;5030875;28;59539;-62
2023/06/04 09:38:55;;;;;;;1.30;0.77;;;;;;;;;;5028613;28;59143;-61
2023/06/04 09:41:21;;;;;;;1.73;0.80;;;;;;;;;;5029506;28;59169;-62
2023/06/04 09:43:46;;;;;;;2.53;1.20;;;;;;;;;;5028875;28;59820;-62
2023/06/04 09:46:12;;;;;;;1.73;0.90;;;;;;;;;;5028627;28;59185;-62
2023/06/04 09:48:37;;;;;;;3.28;1.48;;;;;;;;;;5029006;28;59209;-62
2023/06/04 09:51:10;;;;;;;1.58;0.90;;;;;;;;;;5028774;28;59476;-63
2023/06/04 09:53:35;;;;;;;1.58;0.80;;;;;;;;;;5028047;28;59234;-62
2023/06/04 09:56:01;;;;;;;2.00;1.10;;;;;;;;;;5029536;28;59349;-63
2023/06/04 09:58:27;;;;;;;2.97;0.90;;;;;;;;;;5025674;28;59484;-62
2023/06/04 10:00:53;;;;;;;0.73;0.60;;;;;;;;;;5028373;28;59093;-63
2023/06/04 10:03:23;;;;;;;1.58;1.20;;;;;;;;;;5028525;28;59176;-62
2023/06/04 10:05:49;;;;;;;1.88;0.60;;;;;;;;;;5024685;28;59221;-62
2023/06/04 10:08:15;;;;;;;1.58;0.60;;;;;;;;;;5027605;28;59251;-62
2023/06/04 10:10:41;;;;;;;3.13;0.73;;;;;;;;;;5029440;28;59522;-62
2023/06/04 10:13:19;;;;;;;0.88;0.60;;;;;;;;;;5029179;28;59004;-62
2023/06/04 10:15:45;;;;;;;0.70;0.50;;;;;;;;;;5027226;28;59235;-62
2023/06/04 10:18:11;;;;;;;1.15;1.05;;;;;;;;;;5027117;28;59406;-62
2023/06/04 10:20:37;;;;;;;0.63;0.63;;;;;;;;;;5027976;28;60158;-62
2023/06/04 10:23:04;;;;;;;2.42;0.60;;;;;;;;;;5027991;28;59378;-62
2023/06/04 10:25:29;;;;;;;1.33;0.57;;;;;;;;;;5028326;28;59104;-58
2023/06/04 10:27:55;;;;;;;1.50;0.53;;;;;;;;;;5028680;28;59608;-60
2023/06/04 10:30:20;;;;;;;1.73;1.17;;;;;;;;;;5027259;28;59820;-62
2023/06/04 10:32:46;;;;;;;2.17;0.77;;;;;;;;;;5028714;28;59372;-62
2023/06/04 10:35:12;;;;;;;1.95;1.02;;;;;;;;;;5028243;28;58985;-62
2023/06/04 10:37:37;;;;;;;1.77;0.80;;;;;;;;;;5027675;28;59609;-62
2023/06/04 10:40:04;;;;;;;1.30;1.20;;;;;;;;;;5028425;28;59470;-62
2023/06/04 10:42:37;;;;;;;1.88;0.95;;;;;;;;;;5028363;28;59197;-61
2023/06/04 10:45:03;;;;;;;0.82;0.70;;;;;;;;;;5022003;28;60024;-62
2023/06/04 10:47:31;;;;;;;1.27;0.80;;;;;;;;;;5026897;28;59245;-61
2023/06/04 10:50:07;;;;;;;0.68;0.40;;;;;;;;;;5027767;28;60105;-63
2023/06/04 10:52:35;;;;;;;0.60;0.40;;;;;;;;;;5026716;28;59420;-62
2023/06/04 10:55:04;;;;;;;0.63;0.40;;;;;;;;;;5029059;28;59593;-63
2023/06/04 10:57:29;;;;;;;0.50;0.50;;;;;;;;;;5024797;28;59313;-63
2023/06/04 10:59:55;;;;;;;1.13;0.83;;;;;;;;;;5028841;28;59219;-62
2023/06/04 11:02:20;;;;;;;1.40;0.60;;;;;;;;;;5025274;28;59851;-62
2023/06/04 11:04:46;;;;;;;1.10;0.70;;;;;;;;;;5027095;28;59323;-61
2023/06/04 11:07:11;;;;;;;0.80;0.80;;;;;;;;;;5028079;28;59280;-62
2023/06/04 11:09:37;;;;;;;1.07;0.53;;;;;;;;;;5028284;28;59452;-62
2023/06/04 11:12:04;;;;;;;0.85;0.43;;;;;;;;;;5027529;28;59501;-62
2023/06/04 11:14:29;;;;;;;0.75;0.70;;;;;;;;;;5028233;28;59261;-62
2023/06/04 11:16:54;;;;;;;1.02;0.52;;;;;;;;;;5027548;28;59069;-62
2023/06/04 11:19:20;;;;;;;0.50;0.43;;;;;;;;;;5027053;28;59286;-61
2023/06/04 11:21:45;;;;;;;0.75;0.28;;;;;;;;;;5026201;28;59777;-63
2023/06/04 11:24:12;;;;;;;0.67;0.50;;;;;;;;;;5025820;28;59203;-62
2023/06/04 11:26:37;;;;;;;0.68;0.68;;;;;;;;;;5026121;28;59390;-63
2023/06/04 11:29:05;;;;;;;1.10;0.60;;;;;;;;;;5027451;28;59858;-62
2023/06/04 11:31:40;;;;;;;1.33;0.50;;;;;;;;;;5024565;28;59683;-61
2023/06/04 11:34:05;;;;;;;0.40;0.40;;;;;;;;;;5028623;28;59234;-63
2023/06/04 11:36:32;;;;;;;1.70;0.63;;;;;;;;;;5027970;28;59560;-63
2023/06/04 11:38:58;;;;;;;1.23;0.88;;;;;;;;;;5028742;28;59183;-63
2023/06/04 11:41:24;;;;;;;1.15;0.47;;;;;;;;;;5026251;28;60006;-62
2023/06/04 11:43:50;;;;;;;1.02;0.57;;;;;;;;;;5027270;28;59733;-59
2023/06/04 11:46:15;;;;;;;1.95;0.80;;;;;;;;;;5027622;28;59060;-62
2023/06/04 11:48:40;;;;;;;1.37;0.63;;;;;;;;;;5026751;28;59177;-62
2023/06/04 11:51:09;;;;;;;0.77;0.30;;;;;;;;;;5026852;28;59353;-62
2023/06/04 11:53:36;;;;;;;3.03;0.65;;;;;;;;;;5025215;28;59242;-62
2023/06/04 11:56:01;;;;;;;1.17;0.50;;;;;;;;;;5026560;28;59618;-63
2023/06/04 11:58:26;;;;;;;0.57;0.40;;;;;;;;;;5027925;28;59229;-63
2023/06/04 12:00:52;;;;;;;0.47;0.40;;;;;;;;;;5025925;28;59640;-62
2023/06/04 12:03:17;;;;;;;0.40;0.40;;;;;;;;;;5024833;28;60740;-61
2023/06/04 12:05:42;;;;;;;0.50;0.50;;;;;;;;;;5027431;28;59577;-63
2023/06/04 12:08:09;;;;;;;0.75;0.50;;;;;;;;;;5024665;28;59591;-63
2023/06/04 12:10:38;;;;;;;0.40;0.30;;;;;;;;;;5026765;28;59560;-60
2023/06/04 12:13:03;;;;;;;0.70;0.50;;;;;;;;;;5026452;28;59373;-62
2023/06/04 12:15:28;;;;;;;0.43;0.43;;;;;;;;;;5025365;28;59191;-62
2023/06/04 12:17:54;;;;;;;0.50;0.50;;;;;;;;;;5028038;28;59532;-62
2023/06/04 12:20:31;;;;;;;0.32;0.32;;;;;;;;;;5028591;28;59329;-62
2023/06/04 12:22:56;;;;;;;1.35;0.40;;;;;;;;;;5025659;28;59140;-62
2023/06/04 12:25:26;;;;;;;0.40;0.40;;;;;;;;;;5026074;28;59712;-60
2023/06/04 12:27:51;;;;;;;0.63;0.63;;;;;;;;;;5024841;28;59615;-62
2023/06/04 12:30:16;;;;;;;1.23;0.63;;;;;;;;;;5027398;28;59240;-62
2023/06/04 12:32:42;;;;;;;0.60;0.60;;;;;;;;;;5031700;28;59459;-63
2023/06/04 12:35:07;;;;;;;1.48;0.90;;;;;;;;;;5026626;28;60005;-61
2023/06/04 12:37:32;;;;;;;1.65;0.40;;;;;;;;;;5028942;28;59215;-62
2023/06/04 12:39:58;;;;;;;0.77;0.50;;;;;;;;;;5029080;28;59892;-63
2023/06/04 12:42:23;;;;;;;0.32;0.30;;;;;;;;;;5029752;28;59611;-63
2023/06/04 12:44:48;;;;;;;1.10;0.82;;;;;;;;;;5030696;28;59600;-62
2023/06/04 12:47:14;;;;;;;0.30;0.30;;;;;;;;;;5030185;28;59727;-63
2023/06/04 12:49:39;;;;;;;0.40;0.40;;;;;;;;;;5029204;28;59184;-63
2023/06/04 12:52:05;;;;;;;0.47;0.43;;;;;;;;;;5029572;28;59352;-62
2023/06/04 12:54:30;;;;;;;0.50;0.50;;;;;;;;;;5030825;28;59293;-62
2023/06/04 12:56:56;;;;;;;0.53;0.53;;;;;;;;;;5030193;28;59274;-60
2023/06/04 12:59:21;;;;;;;0.77;0.50;;;;;;;;;;5028873;28;59197;-63
2023/06/04 13:01:46;;;;;;;1.05;0.50;;;;;;;;;;5025094;28;59178;-63
2023/06/04 13:04:12;;;;;;;1.27;0.60;;;;;;;;;;5030932;28;59741;-62
2023/06/04 13:06:37;;;;;;;1.27;0.60;;;;;;;;;;5027622;28;59391;-63
2023/06/04 13:09:08;;;;;;;1.10;0.45;;;;;;;;;;5029370;28;59463;-62
2023/06/04 13:11:33;;;;;;;0.93;0.93;;;;;;;;;;5029893;28;59217;-62
2023/06/04 13:13:58;;;;;;;0.50;0.50;;;;;;;;;;5028931;28;59369;-62
2023/06/04 13:16:24;;;;;;;0.55;0.52;;;;;;;;;;5027828;28;60203;-63
2023/06/04 13:18:49;;;;;;;0.93;0.50;;;;;;;;;;5028172;28;59267;-62
2023/06/04 13:21:14;;;;;;;0.50;0.45;;;;;;;;;;5030099;28;59486;-62
2023/06/04 13:23:40;;;;;;;0.40;0.30;;;;;;;;;;5030463;28;59150;-61
2023/06/04 13:26:05;;;;;;;0.40;0.40;;;;;;;;;;5028854;28;59468;-63
2023/06/04 13:28:30;;;;;;;0.50;0.30;;;;;;;;;;5027496;28;59485;-62
2023/06/04 13:30:55;;;;;;;0.70;0.63;;;;;;;;;;5029191;28;59200;-62
2023/06/04 13:33:21;;;;;;;0.30;0.20;;;;;;;;;;5029232;28;59396;-62
2023/06/04 13:35:46;;;;;;;0.35;0.35;;;;;;;;;;5029673;28;59298;-63
2023/06/04 13:38:12;;;;;;;0.60;0.60;;;;;;;;;;5029685;28;59250;-62
2023/06/04 13:40:37;;;;;;;0.65;0.50;;;;;;;;;;5028872;28;59666;-62
2023/06/04 13:43:02;;;;;;;0.60;0.60;;;;;;;;;;5028715;28;59378;-62
2023/06/04 13:45:28;;;;;;;0.75;0.40;;;;;;;;;;5029448;28;59547;-63
2023/06/04 13:47:53;;;;;;;0.80;0.40;;;;;;;;;;5028867;28;59305;-62
2023/06/04 13:50:18;;;;;;;0.63;0.63;;;;;;;;;;5028981;28;59079;-61
2023/06/04 13:52:44;;;;;;;0.20;0.17;;;;;;;;;;5024143;28;59242;-63
2023/06/04 13:55:09;;;;;;;2.05;0.40;;;;;;;;;;5025836;28;59284;-62
2023/06/04 13:57:34;;;;;;;0.28;0.28;;;;;;;;;;5023274;28;59100;-62
2023/06/04 14:00:00;;;;;;;1.05;0.90;;;;;;;;;;5024717;28;59818;-62
2023/06/04 14:02:25;;;;;;;0.30;0.30;;;;;;;;;;5024601;28;59429;-62
2023/06/04 14:04:52;;;;;;;0.50;0.50;;;;;;;;;;5026041;28;59674;-61
2023/06/04 14:07:17;;;;;;;3.90;0.80;;;;;;;;;;5022377;28;59112;-62
2023/06/04 14:09:43;;;;;;;1.23;0.40;;;;;;;;;;5022984;28;59618;-61
2023/06/04 14:12:08;;;;;;;0.65;0.40;;;;;;;;;;5024479;28;59818;-61
2023/06/04 14:14:36;;;;;;;0.82;0.77;;;;;;;;;;5023360;28;59331;-62
2023/06/04 14:17:02;;;;;;;1.00;0.88;;;;;;;;;;5024237;28;59143;-62
2023/06/04 14:19:27;;;;;;;2.97;0.90;;;;;;;;;;5025745;28;59743;-59
2023/06/04 14:21:52;;;;;;;0.97;0.30;;;;;;;;;;5022795;28;59607;-61
2023/06/04 14:24:17;;;;;;;3.50;0.73;;;;;;;;;;5019013;28;59309;-61
2023/06/04 14:26:42;;;;;;;1.20;0.80;;;;;;;;;;5023861;28;58790;-61
2023/06/04 14:29:08;;;;;;;2.40;1.47;;;;;;;;;;5024693;28;59303;-61
2023/06/04 14:31:33;;;;;;;2.63;0.60;;;;;;;;;;5025034;28;59784;-61
2023/06/04 14:33:58;;;;;;;0.63;0.50;;;;;;;;;;5024055;28;58879;-61